sensor_id;sensor_type;location;lat;lon;timestamp;P1;durP1;ratioP1;P2;durP2;ratioP2
27163;SDS011;14685;50.618;7.024;2023-01-31T00:01:38;20.08;;;3.72;;
27163;SDS011;14685;50.618;7.024;2023-01-31T00:04:08;19.58;;;4.05;;
27163;SDS011;14685;50.618;7.024;2023-01-31T00:06:38;17.02;;;3.53;;
27163;SDS011;14685;50.618;7.024;2023-01-31T00:09:07;20.13;;;4.13;;
27163;SDS011;14685;50.618;7.024;2023-01-31T00:11:35;18.20;;;3.90;;
27163;SDS011;14685;50.618;7.024;2023-01-31T00:14:03;22.42;;;3.67;;
27163;SDS011;14685;50.618;7.024;2023-01-31T00:16:31;25.05;;;4.38;;
27163;SDS011;14685;50.618;7.024;2023-01-31T00:18:58;10.70;;;2.92;;
27163;SDS011;14685;50.618;7.024;2023-01-31T00:21:28;22.85;;;4.13;;
27163;SDS011;14685;50.618;7.024;2023-01-31T00:23:56;18.50;;;3.63;;
27163;SDS011;14685;50.618;7.024;2023-01-31T00:26:27;17.33;;;3.15;;
27163;SDS011;14685;50.618;7.024;2023-01-31T00:28:56;21.38;;;4.07;;
27163;SDS011;14685;50.618;7.024;2023-01-31T00:31:24;18.17;;;3.30;;
27163;SDS011;14685;50.618;7.024;2023-01-31T00:33:53;19.00;;;3.83;;
27163;SDS011;14685;50.618;7.024;2023-01-31T00:36:22;15.85;;;3.22;;
27163;SDS011;14685;50.618;7.024;2023-01-31T00:38:51;17.45;;;3.90;;
27163;SDS011;14685;50.618;7.024;2023-01-31T00:41:21;21.05;;;4.05;;
27163;SDS011;14685;50.618;7.024;2023-01-31T00:43:49;20.52;;;3.85;;
27163;SDS011;14685;50.618;7.024;2023-01-31T00:46:16;21.85;;;4.55;;
27163;SDS011;14685;50.618;7.024;2023-01-31T00:48:47;16.90;;;4.10;;
27163;SDS011;14685;50.618;7.024;2023-01-31T00:51:15;16.10;;;3.83;;
27163;SDS011;14685;50.618;7.024;2023-01-31T00:53:42;15.93;;;3.38;;
27163;SDS011;14685;50.618;7.024;2023-01-31T00:56:10;17.02;;;3.70;;
27163;SDS011;14685;50.618;7.024;2023-01-31T00:58:39;22.40;;;4.30;;
27163;SDS011;14685;50.618;7.024;2023-01-31T01:01:11;20.35;;;3.75;;
27163;SDS011;14685;50.618;7.024;2023-01-31T01:03:49;19.80;;;4.25;;
27163;SDS011;14685;50.618;7.024;2023-01-31T01:06:17;20.35;;;4.45;;
27163;SDS011;14685;50.618;7.024;2023-01-31T01:08:44;20.20;;;3.92;;
27163;SDS011;14685;50.618;7.024;2023-01-31T01:11:13;26.58;;;4.47;;
27163;SDS011;14685;50.618;7.024;2023-01-31T01:13:45;20.93;;;3.90;;
27163;SDS011;14685;50.618;7.024;2023-01-31T01:16:13;12.68;;;3.58;;
27163;SDS011;14685;50.618;7.024;2023-01-31T01:18:44;16.63;;;3.53;;
27163;SDS011;14685;50.618;7.024;2023-01-31T01:21:17;14.43;;;3.28;;
27163;SDS011;14685;50.618;7.024;2023-01-31T01:26:21;18.92;;;3.53;;
27163;SDS011;14685;50.618;7.024;2023-01-31T01:28:53;17.88;;;3.85;;
27163;SDS011;14685;50.618;7.024;2023-01-31T01:31:21;14.82;;;3.80;;
27163;SDS011;14685;50.618;7.024;2023-01-31T01:33:59;22.73;;;4.50;;
27163;SDS011;14685;50.618;7.024;2023-01-31T01:36:35;16.17;;;4.13;;
27163;SDS011;14685;50.618;7.024;2023-01-31T01:39:03;18.70;;;3.45;;
27163;SDS011;14685;50.618;7.024;2023-01-31T01:41:31;15.63;;;3.38;;
27163;SDS011;14685;50.618;7.024;2023-01-31T01:43:59;14.82;;;3.28;;
27163;SDS011;14685;50.618;7.024;2023-01-31T01:49:03;16.73;;;4.00;;
27163;SDS011;14685;50.618;7.024;2023-01-31T01:51:37;12.40;;;2.97;;
27163;SDS011;14685;50.618;7.024;2023-01-31T01:54:07;20.35;;;4.00;;
27163;SDS011;14685;50.618;7.024;2023-01-31T01:56:41;18.35;;;3.78;;
27163;SDS011;14685;50.618;7.024;2023-01-31T02:01:40;19.70;;;3.47;;
27163;SDS011;14685;50.618;7.024;2023-01-31T02:04:09;15.50;;;3.00;;
27163;SDS011;14685;50.618;7.024;2023-01-31T02:06:41;13.38;;;3.47;;
27163;SDS011;14685;50.618;7.024;2023-01-31T02:09:10;20.73;;;3.92;;
27163;SDS011;14685;50.618;7.024;2023-01-31T02:11:46;13.82;;;3.67;;
27163;SDS011;14685;50.618;7.024;2023-01-31T02:14:13;19.55;;;3.53;;
27163;SDS011;14685;50.618;7.024;2023-01-31T02:16:41;16.90;;;3.33;;
27163;SDS011;14685;50.618;7.024;2023-01-31T02:19:15;17.92;;;3.13;;
27163;SDS011;14685;50.618;7.024;2023-01-31T02:21:58;22.40;;;3.63;;
27163;SDS011;14685;50.618;7.024;2023-01-31T02:32:52;21.13;;;3.65;;
27163;SDS011;14685;50.618;7.024;2023-01-31T02:38:37;19.55;;;3.42;;
27163;SDS011;14685;50.618;7.024;2023-01-31T02:43:59;12.13;;;3.03;;
27163;SDS011;14685;50.618;7.024;2023-01-31T02:46:59;12.45;;;3.08;;
27163;SDS011;14685;50.618;7.024;2023-01-31T02:49:54;13.70;;;2.45;;
27163;SDS011;14685;50.618;7.024;2023-01-31T02:52:33;18.17;;;3.65;;
27163;SDS011;14685;50.618;7.024;2023-01-31T02:57:59;12.02;;;3.25;;
27163;SDS011;14685;50.618;7.024;2023-01-31T03:00:31;11.10;;;2.90;;
27163;SDS011;14685;50.618;7.024;2023-01-31T03:03:11;10.85;;;2.67;;
27163;SDS011;14685;50.618;7.024;2023-01-31T03:05:55;15.10;;;3.40;;
27163;SDS011;14685;50.618;7.024;2023-01-31T03:08:37;14.30;;;3.30;;
27163;SDS011;14685;50.618;7.024;2023-01-31T03:11:09;14.15;;;2.97;;
27163;SDS011;14685;50.618;7.024;2023-01-31T03:16:37;10.48;;;2.30;;
27163;SDS011;14685;50.618;7.024;2023-01-31T03:20:00;14.55;;;2.85;;
27163;SDS011;14685;50.618;7.024;2023-01-31T03:22:36;15.77;;;3.42;;
27163;SDS011;14685;50.618;7.024;2023-01-31T03:25:08;11.55;;;2.75;;
27163;SDS011;14685;50.618;7.024;2023-01-31T03:27:36;21.00;;;3.63;;
27163;SDS011;14685;50.618;7.024;2023-01-31T03:30:09;11.98;;;2.70;;
27163;SDS011;14685;50.618;7.024;2023-01-31T03:32:42;10.80;;;2.53;;
27163;SDS011;14685;50.618;7.024;2023-01-31T03:35:15;14.50;;;2.67;;
27163;SDS011;14685;50.618;7.024;2023-01-31T03:37:54;13.60;;;3.28;;
27163;SDS011;14685;50.618;7.024;2023-01-31T03:40:38;12.57;;;3.13;;
27163;SDS011;14685;50.618;7.024;2023-01-31T03:43:13;11.77;;;2.67;;
27163;SDS011;14685;50.618;7.024;2023-01-31T03:45:58;18.33;;;3.45;;
27163;SDS011;14685;50.618;7.024;2023-01-31T03:48:32;13.43;;;3.05;;
27163;SDS011;14685;50.618;7.024;2023-01-31T03:51:03;11.80;;;2.85;;
27163;SDS011;14685;50.618;7.024;2023-01-31T03:53:38;12.63;;;2.50;;
27163;SDS011;14685;50.618;7.024;2023-01-31T03:56:16;18.92;;;3.80;;
27163;SDS011;14685;50.618;7.024;2023-01-31T03:58:48;10.57;;;3.35;;
27163;SDS011;14685;50.618;7.024;2023-01-31T04:01:19;18.60;;;3.55;;
27163;SDS011;14685;50.618;7.024;2023-01-31T04:03:54;16.38;;;3.40;;
27163;SDS011;14685;50.618;7.024;2023-01-31T04:06:26;12.43;;;3.33;;
27163;SDS011;14685;50.618;7.024;2023-01-31T04:08:54;22.52;;;4.32;;
27163;SDS011;14685;50.618;7.024;2023-01-31T04:11:25;14.77;;;4.22;;
27163;SDS011;14685;50.618;7.024;2023-01-31T04:13:54;16.40;;;3.40;;
27163;SDS011;14685;50.618;7.024;2023-01-31T04:16:23;14.40;;;3.75;;
27163;SDS011;14685;50.618;7.024;2023-01-31T04:18:49;16.88;;;4.35;;
27163;SDS011;14685;50.618;7.024;2023-01-31T04:21:16;14.82;;;3.80;;
27163;SDS011;14685;50.618;7.024;2023-01-31T04:23:44;18.10;;;4.45;;
27163;SDS011;14685;50.618;7.024;2023-01-31T04:26:10;18.38;;;4.60;;
27163;SDS011;14685;50.618;7.024;2023-01-31T04:28:39;18.23;;;4.50;;
27163;SDS011;14685;50.618;7.024;2023-01-31T04:31:07;21.00;;;4.88;;
27163;SDS011;14685;50.618;7.024;2023-01-31T04:33:35;18.27;;;4.85;;
27163;SDS011;14685;50.618;7.024;2023-01-31T04:36:02;17.77;;;5.22;;
27163;SDS011;14685;50.618;7.024;2023-01-31T04:38:29;17.83;;;4.97;;
27163;SDS011;14685;50.618;7.024;2023-01-31T04:40:56;18.15;;;5.32;;
27163;SDS011;14685;50.618;7.024;2023-01-31T04:43:22;16.63;;;5.43;;
27163;SDS011;14685;50.618;7.024;2023-01-31T04:45:49;21.10;;;5.57;;
27163;SDS011;14685;50.618;7.024;2023-01-31T04:48:16;17.48;;;5.45;;
27163;SDS011;14685;50.618;7.024;2023-01-31T04:50:44;20.35;;;5.05;;
27163;SDS011;14685;50.618;7.024;2023-01-31T04:53:11;13.90;;;4.90;;
27163;SDS011;14685;50.618;7.024;2023-01-31T04:55:38;21.17;;;5.57;;
27163;SDS011;14685;50.618;7.024;2023-01-31T04:58:05;18.45;;;5.72;;
27163;SDS011;14685;50.618;7.024;2023-01-31T05:00:32;20.90;;;5.80;;
27163;SDS011;14685;50.618;7.024;2023-01-31T05:02:59;21.88;;;6.00;;
27163;SDS011;14685;50.618;7.024;2023-01-31T05:05:28;16.83;;;5.60;;
27163;SDS011;14685;50.618;7.024;2023-01-31T05:07:56;21.88;;;7.35;;
27163;SDS011;14685;50.618;7.024;2023-01-31T05:10:24;17.35;;;6.00;;
27163;SDS011;14685;50.618;7.024;2023-01-31T05:12:51;18.77;;;5.80;;
27163;SDS011;14685;50.618;7.024;2023-01-31T05:15:18;18.77;;;4.90;;
27163;SDS011;14685;50.618;7.024;2023-01-31T05:17:53;16.55;;;5.18;;
27163;SDS011;14685;50.618;7.024;2023-01-31T05:20:31;22.17;;;6.40;;
27163;SDS011;14685;50.618;7.024;2023-01-31T05:23:04;21.35;;;6.00;;
27163;SDS011;14685;50.618;7.024;2023-01-31T05:25:33;19.17;;;5.53;;
27163;SDS011;14685;50.618;7.024;2023-01-31T05:28:02;21.38;;;5.93;;
27163;SDS011;14685;50.618;7.024;2023-01-31T05:30:30;20.02;;;5.55;;
27163;SDS011;14685;50.618;7.024;2023-01-31T05:32:58;21.55;;;5.95;;
27163;SDS011;14685;50.618;7.024;2023-01-31T05:35:25;23.42;;;6.63;;
27163;SDS011;14685;50.618;7.024;2023-01-31T05:37:53;21.27;;;5.70;;
27163;SDS011;14685;50.618;7.024;2023-01-31T05:40:21;18.48;;;5.70;;
27163;SDS011;14685;50.618;7.024;2023-01-31T05:42:56;17.15;;;5.97;;
27163;SDS011;14685;50.618;7.024;2023-01-31T05:45:26;15.55;;;5.30;;
27163;SDS011;14685;50.618;7.024;2023-01-31T05:47:54;19.73;;;6.30;;
27163;SDS011;14685;50.618;7.024;2023-01-31T05:50:21;19.27;;;7.03;;
27163;SDS011;14685;50.618;7.024;2023-01-31T05:52:51;16.45;;;5.47;;
27163;SDS011;14685;50.618;7.024;2023-01-31T05:55:20;25.83;;;6.18;;
27163;SDS011;14685;50.618;7.024;2023-01-31T05:57:51;15.98;;;6.20;;
27163;SDS011;14685;50.618;7.024;2023-01-31T06:00:18;19.70;;;6.57;;
27163;SDS011;14685;50.618;7.024;2023-01-31T06:02:46;15.77;;;5.45;;
27163;SDS011;14685;50.618;7.024;2023-01-31T06:05:13;18.88;;;5.75;;
27163;SDS011;14685;50.618;7.024;2023-01-31T06:07:40;17.92;;;6.30;;
27163;SDS011;14685;50.618;7.024;2023-01-31T06:10:08;15.98;;;5.40;;
27163;SDS011;14685;50.618;7.024;2023-01-31T06:12:36;16.65;;;5.53;;
27163;SDS011;14685;50.618;7.024;2023-01-31T06:15:04;18.27;;;6.35;;
27163;SDS011;14685;50.618;7.024;2023-01-31T06:17:33;18.17;;;5.72;;
27163;SDS011;14685;50.618;7.024;2023-01-31T06:20:00;18.65;;;6.32;;
27163;SDS011;14685;50.618;7.024;2023-01-31T06:22:27;19.85;;;6.65;;
27163;SDS011;14685;50.618;7.024;2023-01-31T06:24:55;19.05;;;6.45;;
27163;SDS011;14685;50.618;7.024;2023-01-31T06:27:22;20.48;;;6.20;;
27163;SDS011;14685;50.618;7.024;2023-01-31T06:29:49;16.40;;;6.35;;
27163;SDS011;14685;50.618;7.024;2023-01-31T06:32:15;16.80;;;6.35;;
27163;SDS011;14685;50.618;7.024;2023-01-31T06:34:43;22.38;;;6.80;;
27163;SDS011;14685;50.618;7.024;2023-01-31T06:37:09;15.57;;;6.13;;
27163;SDS011;14685;50.618;7.024;2023-01-31T06:39:36;23.23;;;8.65;;
27163;SDS011;14685;50.618;7.024;2023-01-31T06:42:03;34.08;;;14.48;;
27163;SDS011;14685;50.618;7.024;2023-01-31T06:44:33;36.35;;;17.23;;
27163;SDS011;14685;50.618;7.024;2023-01-31T06:47:00;31.63;;;14.90;;
27163;SDS011;14685;50.618;7.024;2023-01-31T06:49:28;32.08;;;13.63;;
27163;SDS011;14685;50.618;7.024;2023-01-31T06:51:55;32.28;;;13.25;;
27163;SDS011;14685;50.618;7.024;2023-01-31T06:54:22;17.17;;;7.43;;
27163;SDS011;14685;50.618;7.024;2023-01-31T06:56:49;14.10;;;6.30;;
27163;SDS011;14685;50.618;7.024;2023-01-31T06:59:18;21.23;;;7.03;;
27163;SDS011;14685;50.618;7.024;2023-01-31T07:01:45;22.48;;;9.55;;
27163;SDS011;14685;50.618;7.024;2023-01-31T07:04:14;37.75;;;16.58;;
27163;SDS011;14685;50.618;7.024;2023-01-31T07:06:42;33.97;;;14.30;;
27163;SDS011;14685;50.618;7.024;2023-01-31T07:09:09;19.88;;;8.20;;
27163;SDS011;14685;50.618;7.024;2023-01-31T07:11:37;25.08;;;8.07;;
27163;SDS011;14685;50.618;7.024;2023-01-31T07:14:05;23.10;;;7.18;;
27163;SDS011;14685;50.618;7.024;2023-01-31T07:16:32;22.73;;;7.68;;
27163;SDS011;14685;50.618;7.024;2023-01-31T07:18:59;21.05;;;8.20;;
27163;SDS011;14685;50.618;7.024;2023-01-31T07:21:28;17.27;;;7.07;;
27163;SDS011;14685;50.618;7.024;2023-01-31T07:23:56;19.33;;;7.18;;
27163;SDS011;14685;50.618;7.024;2023-01-31T07:26:24;23.00;;;6.75;;
27163;SDS011;14685;50.618;7.024;2023-01-31T07:28:51;14.52;;;5.78;;
27163;SDS011;14685;50.618;7.024;2023-01-31T07:31:18;19.50;;;6.13;;
27163;SDS011;14685;50.618;7.024;2023-01-31T07:33:47;14.55;;;6.43;;
27163;SDS011;14685;50.618;7.024;2023-01-31T07:36:14;26.30;;;6.82;;
27163;SDS011;14685;50.618;7.024;2023-01-31T07:38:44;22.33;;;7.22;;
27163;SDS011;14685;50.618;7.024;2023-01-31T07:41:11;21.45;;;7.43;;
27163;SDS011;14685;50.618;7.024;2023-01-31T07:43:38;21.35;;;7.93;;
27163;SDS011;14685;50.618;7.024;2023-01-31T07:46:06;16.23;;;7.50;;
27163;SDS011;14685;50.618;7.024;2023-01-31T07:48:37;22.00;;;8.45;;
27163;SDS011;14685;50.618;7.024;2023-01-31T07:51:04;20.40;;;9.02;;
27163;SDS011;14685;50.618;7.024;2023-01-31T07:53:34;22.13;;;9.07;;
27163;SDS011;14685;50.618;7.024;2023-01-31T07:56:14;22.20;;;9.70;;
27163;SDS011;14685;50.618;7.024;2023-01-31T07:58:42;28.70;;;10.40;;
27163;SDS011;14685;50.618;7.024;2023-01-31T08:01:12;22.17;;;8.57;;
27163;SDS011;14685;50.618;7.024;2023-01-31T08:04:04;21.75;;;7.95;;
27163;SDS011;14685;50.618;7.024;2023-01-31T08:06:47;18.37;;;7.30;;
27163;SDS011;14685;50.618;7.024;2023-01-31T08:09:18;22.95;;;9.50;;
27163;SDS011;14685;50.618;7.024;2023-01-31T08:11:45;23.75;;;9.85;;
27163;SDS011;14685;50.618;7.024;2023-01-31T08:14:12;15.82;;;6.97;;
27163;SDS011;14685;50.618;7.024;2023-01-31T08:16:40;20.80;;;7.07;;
27163;SDS011;14685;50.618;7.024;2023-01-31T08:19:08;19.98;;;6.47;;
27163;SDS011;14685;50.618;7.024;2023-01-31T08:21:34;14.07;;;6.00;;
27163;SDS011;14685;50.618;7.024;2023-01-31T08:24:02;15.75;;;5.82;;
27163;SDS011;14685;50.618;7.024;2023-01-31T08:26:32;18.48;;;6.13;;
27163;SDS011;14685;50.618;7.024;2023-01-31T08:28:58;21.23;;;6.40;;
27163;SDS011;14685;50.618;7.024;2023-01-31T08:31:26;12.15;;;5.28;;
27163;SDS011;14685;50.618;7.024;2023-01-31T08:33:55;15.93;;;4.88;;
27163;SDS011;14685;50.618;7.024;2023-01-31T08:36:24;15.52;;;3.80;;
27163;SDS011;14685;50.618;7.024;2023-01-31T08:38:53;16.65;;;4.28;;
27163;SDS011;14685;50.618;7.024;2023-01-31T08:41:23;19.50;;;4.13;;
27163;SDS011;14685;50.618;7.024;2023-01-31T08:43:51;16.08;;;4.53;;
27163;SDS011;14685;50.618;7.024;2023-01-31T08:46:23;16.00;;;3.40;;
27163;SDS011;14685;50.618;7.024;2023-01-31T08:48:52;15.20;;;3.78;;
27163;SDS011;14685;50.618;7.024;2023-01-31T08:51:20;18.38;;;3.90;;
27163;SDS011;14685;50.618;7.024;2023-01-31T08:53:48;20.25;;;4.20;;
27163;SDS011;14685;50.618;7.024;2023-01-31T08:56:17;13.52;;;3.80;;
27163;SDS011;14685;50.618;7.024;2023-01-31T08:58:46;15.23;;;3.55;;
27163;SDS011;14685;50.618;7.024;2023-01-31T09:01:15;14.57;;;3.97;;
27163;SDS011;14685;50.618;7.024;2023-01-31T09:03:44;16.75;;;3.33;;
27163;SDS011;14685;50.618;7.024;2023-01-31T09:06:13;14.20;;;3.63;;
27163;SDS011;14685;50.618;7.024;2023-01-31T09:08:42;10.32;;;3.08;;
27163;SDS011;14685;50.618;7.024;2023-01-31T09:11:09;17.45;;;3.50;;
27163;SDS011;14685;50.618;7.024;2023-01-31T09:13:36;14.02;;;3.40;;
27163;SDS011;14685;50.618;7.024;2023-01-31T09:16:07;15.43;;;3.40;;
27163;SDS011;14685;50.618;7.024;2023-01-31T09:18:36;21.90;;;4.30;;
27163;SDS011;14685;50.618;7.024;2023-01-31T09:21:08;12.48;;;3.13;;
27163;SDS011;14685;50.618;7.024;2023-01-31T09:23:37;15.00;;;3.78;;
27163;SDS011;14685;50.618;7.024;2023-01-31T09:26:07;13.88;;;3.67;;
27163;SDS011;14685;50.618;7.024;2023-01-31T09:28:36;16.38;;;3.53;;
27163;SDS011;14685;50.618;7.024;2023-01-31T09:31:07;19.50;;;3.92;;
27163;SDS011;14685;50.618;7.024;2023-01-31T09:33:36;15.18;;;3.90;;
27163;SDS011;14685;50.618;7.024;2023-01-31T09:36:04;15.77;;;3.85;;
27163;SDS011;14685;50.618;7.024;2023-01-31T09:38:33;22.60;;;4.47;;
27163;SDS011;14685;50.618;7.024;2023-01-31T09:41:02;19.30;;;4.28;;
27163;SDS011;14685;50.618;7.024;2023-01-31T09:43:42;19.20;;;4.43;;
27163;SDS011;14685;50.618;7.024;2023-01-31T09:46:14;18.20;;;4.07;;
27163;SDS011;14685;50.618;7.024;2023-01-31T09:48:47;15.00;;;4.15;;
27163;SDS011;14685;50.618;7.024;2023-01-31T09:51:18;16.33;;;3.60;;
27163;SDS011;14685;50.618;7.024;2023-01-31T09:53:46;14.98;;;3.42;;
27163;SDS011;14685;50.618;7.024;2023-01-31T09:56:19;19.45;;;4.18;;
27163;SDS011;14685;50.618;7.024;2023-01-31T10:09:47;20.50;;;4.10;;
27163;SDS011;14685;50.618;7.024;2023-01-31T10:12:40;13.15;;;3.42;;
27163;SDS011;14685;50.618;7.024;2023-01-31T10:17:58;14.88;;;3.83;;
27163;SDS011;14685;50.618;7.024;2023-01-31T10:20:38;13.15;;;3.75;;
27163;SDS011;14685;50.618;7.024;2023-01-31T10:28:45;13.60;;;3.92;;
27163;SDS011;14685;50.618;7.024;2023-01-31T10:31:23;17.38;;;4.47;;
27163;SDS011;14685;50.618;7.024;2023-01-31T10:34:06;18.13;;;4.55;;
27163;SDS011;14685;50.618;7.024;2023-01-31T10:36:37;15.55;;;3.67;;
27163;SDS011;14685;50.618;7.024;2023-01-31T10:39:27;15.90;;;3.67;;
27163;SDS011;14685;50.618;7.024;2023-01-31T10:42:09;16.65;;;4.53;;
27163;SDS011;14685;50.618;7.024;2023-01-31T10:44:40;15.95;;;4.13;;
27163;SDS011;14685;50.618;7.024;2023-01-31T10:47:12;13.02;;;3.92;;
27163;SDS011;14685;50.618;7.024;2023-01-31T10:49:44;13.57;;;3.47;;
27163;SDS011;14685;50.618;7.024;2023-01-31T10:52:20;14.98;;;3.95;;
27163;SDS011;14685;50.618;7.024;2023-01-31T10:55:08;18.02;;;4.22;;
27163;SDS011;14685;50.618;7.024;2023-01-31T10:57:52;22.58;;;4.40;;
27163;SDS011;14685;50.618;7.024;2023-01-31T11:00:21;15.80;;;4.20;;
27163;SDS011;14685;50.618;7.024;2023-01-31T11:02:53;19.95;;;4.05;;
27163;SDS011;14685;50.618;7.024;2023-01-31T11:05:21;17.42;;;4.05;;
27163;SDS011;14685;50.618;7.024;2023-01-31T11:07:50;12.65;;;3.90;;
27163;SDS011;14685;50.618;7.024;2023-01-31T11:10:30;20.70;;;4.43;;
27163;SDS011;14685;50.618;7.024;2023-01-31T11:13:02;15.18;;;4.32;;
27163;SDS011;14685;50.618;7.024;2023-01-31T11:15:39;14.23;;;3.92;;
27163;SDS011;14685;50.618;7.024;2023-01-31T11:18:13;19.02;;;3.88;;
27163;SDS011;14685;50.618;7.024;2023-01-31T11:20:49;16.83;;;3.97;;
27163;SDS011;14685;50.618;7.024;2023-01-31T11:23:16;14.98;;;3.92;;
27163;SDS011;14685;50.618;7.024;2023-01-31T11:25:49;13.30;;;3.78;;
27163;SDS011;14685;50.618;7.024;2023-01-31T11:28:37;15.70;;;3.53;;
27163;SDS011;14685;50.618;7.024;2023-01-31T11:31:06;18.83;;;4.43;;
27163;SDS011;14685;50.618;7.024;2023-01-31T11:36:32;11.70;;;3.97;;
27163;SDS011;14685;50.618;7.024;2023-01-31T11:42:03;17.10;;;4.05;;
27163;SDS011;14685;50.618;7.024;2023-01-31T11:44:54;12.88;;;4.57;;
27163;SDS011;14685;50.618;7.024;2023-01-31T11:47:31;20.50;;;4.93;;
27163;SDS011;14685;50.618;7.024;2023-01-31T11:50:18;17.10;;;4.90;;
27163;SDS011;14685;50.618;7.024;2023-01-31T11:52:54;16.08;;;4.55;;
27163;SDS011;14685;50.618;7.024;2023-01-31T11:55:27;11.60;;;4.15;;
27163;SDS011;14685;50.618;7.024;2023-01-31T11:58:01;13.60;;;4.35;;
27163;SDS011;14685;50.618;7.024;2023-01-31T12:00:50;16.42;;;4.10;;
27163;SDS011;14685;50.618;7.024;2023-01-31T12:03:26;15.27;;;4.00;;
27163;SDS011;14685;50.618;7.024;2023-01-31T12:06:01;12.63;;;4.35;;
27163;SDS011;14685;50.618;7.024;2023-01-31T12:13:49;19.38;;;4.93;;
27163;SDS011;14685;50.618;7.024;2023-01-31T12:16:21;16.35;;;4.82;;
27163;SDS011;14685;50.618;7.024;2023-01-31T12:19:00;13.52;;;4.13;;
27163;SDS011;14685;50.618;7.024;2023-01-31T12:24:56;11.73;;;3.80;;
27163;SDS011;14685;50.618;7.024;2023-01-31T12:30:17;16.00;;;3.60;;
27163;SDS011;14685;50.618;7.024;2023-01-31T12:32:52;15.27;;;3.72;;
27163;SDS011;14685;50.618;7.024;2023-01-31T12:35:43;13.95;;;3.72;;
27163;SDS011;14685;50.618;7.024;2023-01-31T12:38:35;10.37;;;3.17;;
27163;SDS011;14685;50.618;7.024;2023-01-31T12:41:31;10.85;;;3.47;;
27163;SDS011;14685;50.618;7.024;2023-01-31T12:50:12;19.60;;;5.70;;
27163;SDS011;14685;50.618;7.024;2023-01-31T13:01:48;7.63;;;2.65;;
27163;SDS011;14685;50.618;7.024;2023-01-31T13:04:47;6.22;;;2.20;;
27163;SDS011;14685;50.618;7.024;2023-01-31T13:07:24;6.28;;;2.17;;
27163;SDS011;14685;50.618;7.024;2023-01-31T13:09:59;5.35;;;1.98;;
27163;SDS011;14685;50.618;7.024;2023-01-31T13:12:30;8.27;;;2.45;;
27163;SDS011;14685;50.618;7.024;2023-01-31T13:15:36;6.90;;;2.55;;
27163;SDS011;14685;50.618;7.024;2023-01-31T13:18:02;4.85;;;2.00;;
27163;SDS011;14685;50.618;7.024;2023-01-31T13:20:33;5.47;;;2.03;;
27163;SDS011;14685;50.618;7.024;2023-01-31T13:23:09;6.13;;;1.80;;
27163;SDS011;14685;50.618;7.024;2023-01-31T13:25:50;3.30;;;1.60;;
27163;SDS011;14685;50.618;7.024;2023-01-31T13:28:25;3.00;;;1.90;;
27163;SDS011;14685;50.618;7.024;2023-01-31T13:30:56;7.85;;;1.70;;
27163;SDS011;14685;50.618;7.024;2023-01-31T13:36:34;2.60;;;1.40;;
27163;SDS011;14685;50.618;7.024;2023-01-31T13:39:17;3.00;;;1.50;;
27163;SDS011;14685;50.618;7.024;2023-01-31T13:41:54;5.93;;;1.40;;
27163;SDS011;14685;50.618;7.024;2023-01-31T13:44:22;3.53;;;1.63;;
27163;SDS011;14685;50.618;7.024;2023-01-31T13:46:51;3.70;;;1.48;;
27163;SDS011;14685;50.618;7.024;2023-01-31T13:49:31;1.58;;;1.33;;
27163;SDS011;14685;50.618;7.024;2023-01-31T13:54:47;2.22;;;1.08;;
27163;SDS011;14685;50.618;7.024;2023-01-31T13:57:31;3.40;;;1.38;;
27163;SDS011;14685;50.618;7.024;2023-01-31T14:03:01;1.33;;;1.05;;
27163;SDS011;14685;50.618;7.024;2023-01-31T14:13:48;3.03;;;1.10;;
27163;SDS011;14685;50.618;7.024;2023-01-31T14:22:03;1.27;;;1.08;;
27163;SDS011;14685;50.618;7.024;2023-01-31T14:30:34;2.78;;;1.33;;
27163;SDS011;14685;50.618;7.024;2023-01-31T14:33:05;1.38;;;1.20;;
27163;SDS011;14685;50.618;7.024;2023-01-31T14:44:55;3.17;;;1.70;;
27163;SDS011;14685;50.618;7.024;2023-01-31T14:53:38;5.45;;;2.65;;
27163;SDS011;14685;50.618;7.024;2023-01-31T14:58:45;7.88;;;2.95;;
27163;SDS011;14685;50.618;7.024;2023-01-31T15:01:14;4.55;;;2.35;;
27163;SDS011;14685;50.618;7.024;2023-01-31T15:03:50;5.10;;;2.08;;
27163;SDS011;14685;50.618;7.024;2023-01-31T15:06:27;5.85;;;2.33;;
27163;SDS011;14685;50.618;7.024;2023-01-31T15:11:42;4.03;;;1.98;;
27163;SDS011;14685;50.618;7.024;2023-01-31T15:17:13;2.47;;;1.70;;
27163;SDS011;14685;50.618;7.024;2023-01-31T15:20:15;2.53;;;1.80;;
27163;SDS011;14685;50.618;7.024;2023-01-31T15:25:20;3.50;;;1.40;;
27163;SDS011;14685;50.618;7.024;2023-01-31T15:28:14;1.73;;;1.30;;
27163;SDS011;14685;50.618;7.024;2023-01-31T15:30:43;1.98;;;1.40;;
27163;SDS011;14685;50.618;7.024;2023-01-31T15:33:18;1.20;;;1.15;;
27163;SDS011;14685;50.618;7.024;2023-01-31T15:36:07;3.15;;;1.30;;
27163;SDS011;14685;50.618;7.024;2023-01-31T15:38:54;1.80;;;1.30;;
27163;SDS011;14685;50.618;7.024;2023-01-31T15:41:39;1.83;;;1.08;;
27163;SDS011;14685;50.618;7.024;2023-01-31T15:44:17;1.35;;;1.20;;
27163;SDS011;14685;50.618;7.024;2023-01-31T15:46:46;2.22;;;1.30;;
27163;SDS011;14685;50.618;7.024;2023-01-31T15:49:30;1.83;;;1.13;;
27163;SDS011;14685;50.618;7.024;2023-01-31T15:54:54;1.58;;;1.25;;
27163;SDS011;14685;50.618;7.024;2023-01-31T15:57:24;1.60;;;1.50;;
27163;SDS011;14685;50.618;7.024;2023-01-31T15:59:57;1.25;;;0.90;;
27163;SDS011;14685;50.618;7.024;2023-01-31T16:02:29;22.65;;;4.60;;
27163;SDS011;14685;50.618;7.024;2023-01-31T16:05:04;2.03;;;1.10;;
27163;SDS011;14685;50.618;7.024;2023-01-31T16:07:32;1.02;;;0.93;;
27163;SDS011;14685;50.618;7.024;2023-01-31T16:09:59;1.27;;;0.80;;
27163;SDS011;14685;50.618;7.024;2023-01-31T16:12:31;1.10;;;1.00;;
27163;SDS011;14685;50.618;7.024;2023-01-31T16:15:03;1.00;;;0.90;;
27163;SDS011;14685;50.618;7.024;2023-01-31T16:17:33;1.65;;;0.80;;
27163;SDS011;14685;50.618;7.024;2023-01-31T16:20:00;1.92;;;0.88;;
27163;SDS011;14685;50.618;7.024;2023-01-31T16:22:31;0.80;;;0.80;;
27163;SDS011;14685;50.618;7.024;2023-01-31T16:25:00;1.30;;;0.82;;
27163;SDS011;14685;50.618;7.024;2023-01-31T16:27:32;0.80;;;0.80;;
27163;SDS011;14685;50.618;7.024;2023-01-31T16:30:02;1.65;;;0.90;;
27163;SDS011;14685;50.618;7.024;2023-01-31T16:32:36;1.30;;;1.00;;
27163;SDS011;14685;50.618;7.024;2023-01-31T16:35:07;2.53;;;0.90;;
27163;SDS011;14685;50.618;7.024;2023-01-31T16:40:32;1.00;;;0.80;;
27163;SDS011;14685;50.618;7.024;2023-01-31T16:43:15;0.70;;;0.70;;
27163;SDS011;14685;50.618;7.024;2023-01-31T16:45:51;1.92;;;0.82;;
27163;SDS011;14685;50.618;7.024;2023-01-31T16:48:27;2.28;;;0.95;;
27163;SDS011;14685;50.618;7.024;2023-01-31T16:56:39;0.77;;;0.77;;
27163;SDS011;14685;50.618;7.024;2023-01-31T16:59:37;1.65;;;1.10;;
27163;SDS011;14685;50.618;7.024;2023-01-31T17:02:01;1.17;;;0.87;;
27163;SDS011;14685;50.618;7.024;2023-01-31T17:04:49;1.77;;;0.88;;
27163;SDS011;14685;50.618;7.024;2023-01-31T17:07:23;1.50;;;0.80;;
27163;SDS011;14685;50.618;7.024;2023-01-31T17:09:56;1.15;;;0.88;;
27163;SDS011;14685;50.618;7.024;2023-01-31T17:12:32;1.20;;;0.98;;
27163;SDS011;14685;50.618;7.024;2023-01-31T17:15:01;2.60;;;0.77;;
27163;SDS011;14685;50.618;7.024;2023-01-31T17:17:40;1.45;;;1.20;;
27163;SDS011;14685;50.618;7.024;2023-01-31T17:20:07;0.88;;;0.88;;
27163;SDS011;14685;50.618;7.024;2023-01-31T17:22:35;1.23;;;1.10;;
27163;SDS011;14685;50.618;7.024;2023-01-31T17:25:10;1.70;;;0.90;;
27163;SDS011;14685;50.618;7.024;2023-01-31T17:27:40;1.40;;;1.13;;
27163;SDS011;14685;50.618;7.024;2023-01-31T17:30:09;1.73;;;1.13;;
27163;SDS011;14685;50.618;7.024;2023-01-31T17:32:37;1.90;;;1.40;;
27163;SDS011;14685;50.618;7.024;2023-01-31T17:35:39;4.25;;;1.30;;